Time;durP1;ratioP1;P1;durP2;ratioP2;P2;SDS_P1;SDS_P2;PMS_P1;PMS_P2;Temp;Humidity;BMP_temperature;BMP_pressure;BME280_temperature;BME280_humidity;BME280_pressure;Samples;Min_cycle;Max_cycle;Signal;HPM_P1;HPM_P2
2021/09/10 00:01:19;;;;;;;0.10;0.10;;;18.70;99.90;;;;;;5035205;28;20048;-70
2021/09/10 00:03:44;;;;;;;0.10;0.10;;;18.80;99.90;;;;;;5035238;28;20021;-71
2021/09/10 00:06:10;;;;;;;0.10;0.10;;;18.70;99.90;;;;;;5033553;28;20065;-71
2021/09/10 00:08:36;;;;;;;0.10;0.10;;;18.70;99.90;;;;;;5034960;28;20033;-71
2021/09/10 00:11:02;;;;;;;0.13;0.13;;;18.70;99.90;;;;;;5033519;28;20095;-71
2021/09/10 00:13:28;;;;;;;0.10;0.10;;;18.80;99.90;;;;;;5034926;28;20148;-71
2021/09/10 00:15:54;;;;;;;0.10;0.10;;;18.80;99.90;;;;;;5034736;28;20375;-71
2021/09/10 00:18:19;;;;;;;0.10;0.10;;;18.70;99.90;;;;;;5034913;28;20028;-71
2021/09/10 00:20:45;;;;;;;0.10;0.10;;;18.80;99.90;;;;;;5034844;28;20021;-71
2021/09/10 00:23:12;;;;;;;0.10;0.10;;;18.80;99.90;;;;;;5034919;28;20473;-71
2021/09/10 00:25:37;;;;;;;0.10;0.10;;;18.90;99.90;;;;;;5033301;28;20087;-71
2021/09/10 00:28:03;;;;;;;0.10;0.10;;;18.90;99.90;;;;;;5034781;28;20029;-71
2021/09/10 00:30:29;;;;;;;0.10;0.10;;;18.90;99.90;;;;;;5034678;28;20033;-71
2021/09/10 00:32:55;;;;;;;0.10;0.10;;;18.70;99.90;;;;;;5034612;28;20029;-71
2021/09/10 00:35:20;;;;;;;0.10;0.10;;;18.60;99.90;;;;;;5034391;28;20499;-71
2021/09/10 00:37:46;;;;;;;0.10;0.10;;;18.60;99.90;;;;;;5034487;28;20033;-71
2021/09/10 00:40:13;;;;;;;0.10;0.10;;;18.50;99.90;;;;;;5034483;28;20045;-71
2021/09/10 00:42:38;;;;;;;0.20;0.20;;;18.40;99.90;;;;;;5016684;28;20037;-71
2021/09/10 00:45:05;;;;;;;0.10;0.10;;;18.30;99.90;;;;;;5034331;28;20029;-71
2021/09/10 00:47:31;;;;;;;0.10;0.10;;;18.20;99.90;;;;;;5033189;28;20092;-71
2021/09/10 00:49:57;;;;;;;0.10;0.10;;;18.00;99.90;;;;;;5033014;28;20029;-71
2021/09/10 00:52:24;;;;;;;0.10;0.10;;;18.00;99.90;;;;;;5034250;28;20033;-69
2021/09/10 00:54:49;;;;;;;0.10;0.10;;;18.00;99.90;;;;;;5034014;28;20032;-69
2021/09/10 00:57:15;;;;;;;0.10;0.10;;;17.90;99.90;;;;;;5034140;28;20041;-68
2021/09/10 00:59:41;;;;;;;0.10;0.10;;;17.90;99.90;;;;;;5034092;28;20029;-69
2021/09/10 01:02:07;;;;;;;0.20;0.20;;;17.90;99.90;;;;;;5034092;28;20035;-69
2021/09/10 01:04:33;;;;;;;0.10;0.10;;;17.90;99.90;;;;;;5033975;28;20034;-69
2021/09/10 01:07:00;;;;;;;0.20;0.20;;;17.90;99.90;;;;;;5033916;28;20159;-69
2021/09/10 01:09:27;;;;;;;0.10;0.10;;;17.90;99.90;;;;;;5033976;28;20029;-69
2021/09/10 01:11:53;;;;;;;0.10;0.10;;;17.90;99.90;;;;;;5033719;28;20029;-69
2021/09/10 01:14:19;;;;;;;0.20;0.20;;;17.60;99.90;;;;;;5033897;28;20018;-69
2021/09/10 01:16:49;;;;;;;0.10;0.10;;;17.50;99.90;;;;;;5033538;28;20025;-69
2021/09/10 01:19:27;;;;;;;0.10;0.10;;;17.50;99.90;;;;;;5033859;28;20485;-70
2021/09/10 01:21:58;;;;;;;0.10;0.10;;;17.40;99.90;;;;;;5033713;28;20018;-70
2021/09/10 01:24:34;;;;;;;0.20;0.20;;;17.30;99.90;;;;;;5033692;28;20075;-70
2021/09/10 01:27:00;;;;;;;0.20;0.20;;;17.40;99.90;;;;;;5032253;28;20021;-70
2021/09/10 01:29:28;;;;;;;0.20;0.20;;;17.40;99.90;;;;;;5033644;28;20032;-70
2021/09/10 01:31:54;;;;;;;0.10;0.10;;;17.40;99.90;;;;;;5032269;28;20033;-70
2021/09/10 01:34:20;;;;;;;0.20;0.20;;;17.40;99.90;;;;;;5033544;28;20079;-70
2021/09/10 01:36:47;;;;;;;0.10;0.10;;;17.40;99.90;;;;;;5033309;28;20028;-70
2021/09/10 01:39:13;;;;;;;0.10;0.10;;;17.50;99.90;;;;;;5032147;28;20072;-70
2021/09/10 01:41:39;;;;;;;0.17;0.17;;;17.50;99.90;;;;;;5033445;28;20025;-70
2021/09/10 01:44:04;;;;;;;0.20;0.20;;;17.50;99.90;;;;;;5032075;28;20044;-70
2021/09/10 01:46:30;;;;;;;0.10;0.10;;;17.40;99.90;;;;;;5033002;28;20075;-70
2021/09/10 01:48:56;;;;;;;0.10;0.10;;;17.40;99.90;;;;;;5031941;28;20025;-70
2021/09/10 01:51:32;;;;;;;0.20;0.20;;;17.40;99.90;;;;;;5033107;28;20037;-70
2021/09/10 01:53:59;;;;;;;0.13;0.13;;;17.30;99.90;;;;;;5033054;28;20028;-70
2021/09/10 01:56:28;;;;;;;0.10;0.10;;;17.40;99.90;;;;;;5032712;28;20021;-70
2021/09/10 01:58:54;;;;;;;0.10;0.10;;;17.40;99.90;;;;;;5057069;22;20096;-82
2021/09/10 02:01:24;;;;;;;0.20;0.20;;;17.30;99.90;;;;;;5037174;28;20100;-81
2021/09/10 02:03:51;;;;;;;0.10;0.10;;;17.40;99.90;;;;;;5020673;28;20025;-80
2021/09/10 02:06:17;;;;;;;0.20;0.20;;;17.40;99.90;;;;;;5019863;28;20055;-81
2021/09/10 02:08:43;;;;;;;0.10;0.10;;;17.40;99.90;;;;;;5037650;28;20100;-82
2021/09/10 02:11:08;;;;;;;0.20;0.20;;;17.30;99.90;;;;;;5019155;28;20080;-81
2021/09/10 02:13:34;;;;;;;0.10;0.10;;;17.20;99.90;;;;;;5035852;28;20025;-80
2021/09/10 02:16:00;;;;;;;0.10;0.10;;;17.30;99.90;;;;;;5036452;28;20105;-80
2021/09/10 02:18:25;;;;;;;0.10;0.10;;;17.30;99.90;;;;;;5018273;28;20544;-80
2021/09/10 02:20:51;;;;;;;0.10;0.10;;;17.30;99.90;;;;;;5036263;28;20073;-80
2021/09/10 02:23:17;;;;;;;0.10;0.10;;;17.30;99.90;;;;;;5034365;28;20076;-81
2021/09/10 02:25:42;;;;;;;0.10;0.10;;;17.30;99.90;;;;;;5040343;28;20029;-81
2021/09/10 02:28:08;;;;;;;0.10;0.10;;;17.30;99.90;;;;;;5043993;28;20029;-80
2021/09/10 02:30:34;;;;;;;0.17;0.17;;;17.20;99.90;;;;;;5041981;28;20040;-81
2021/09/10 02:33:01;;;;;;;0.20;0.20;;;17.20;99.90;;;;;;5039359;28;20110;-80
2021/09/10 02:35:26;;;;;;;0.20;0.20;;;17.20;99.90;;;;;;5022461;28;20028;-81
2021/09/10 02:37:53;;;;;;;0.10;0.10;;;17.20;99.90;;;;;;5038499;28;20514;-81
2021/09/10 02:40:20;;;;;;;0.10;0.10;;;17.10;99.90;;;;;;5039482;28;20090;-81
2021/09/10 02:42:46;;;;;;;0.10;0.10;;;17.20;99.90;;;;;;5037902;28;20029;-81
2021/09/10 02:45:12;;;;;;;0.15;0.15;;;17.10;99.90;;;;;;5021150;28;20025;-81
2021/09/10 02:47:38;;;;;;;0.10;0.10;;;17.00;99.90;;;;;;5020787;28;20104;-81
2021/09/10 02:50:04;;;;;;;0.20;0.20;;;17.00;99.90;;;;;;5037233;28;20084;-82
2021/09/10 02:52:32;;;;;;;0.10;0.10;;;17.00;99.90;;;;;;5036352;28;20063;-81
2021/09/10 02:54:58;;;;;;;0.20;0.20;;;17.00;99.90;;;;;;5037070;28;20049;-81
2021/09/10 02:57:23;;;;;;;0.10;0.10;;;17.00;99.90;;;;;;5037332;28;20048;-82
2021/09/10 02:59:49;;;;;;;0.10;0.10;;;17.00;99.90;;;;;;5018580;28;20025;-80
2021/09/10 03:02:15;;;;;;;0.10;0.10;;;17.00;99.90;;;;;;5037028;28;20029;-81
2021/09/10 03:04:44;;;;;;;0.15;0.15;;;16.90;99.90;;;;;;5035201;28;20022;-81
2021/09/10 03:07:11;;;;;;;0.15;0.15;;;16.80;99.90;;;;;;5036621;28;20474;-80
2021/09/10 03:09:37;;;;;;;0.10;0.10;;;16.80;99.90;;;;;;5035399;28;20084;-81
2021/09/10 03:12:03;;;;;;;0.13;0.13;;;16.80;99.90;;;;;;5036471;28;20498;-80
2021/09/10 03:14:31;;;;;;;0.17;0.17;;;16.70;99.90;;;;;;5035025;28;20109;-80
2021/09/10 03:16:57;;;;;;;0.10;0.10;;;16.60;99.90;;;;;;5017925;28;20021;-80
2021/09/10 03:19:24;;;;;;;0.17;0.17;;;16.50;99.90;;;;;;5017519;28;20026;-80
2021/09/10 03:21:50;;;;;;;0.10;0.10;;;16.40;99.90;;;;;;5017862;28;20026;-81
2021/09/10 03:24:16;;;;;;;0.20;0.20;;;16.40;99.90;;;;;;5016948;28;20033;-81
2021/09/10 03:26:42;;;;;;;0.20;0.20;;;16.40;99.90;;;;;;5034987;28;20037;-80
2021/09/10 03:29:08;;;;;;;0.20;0.20;;;16.30;99.90;;;;;;5035461;28;20415;-81
2021/09/10 03:31:34;;;;;;;0.10;0.10;;;16.40;99.90;;;;;;5033236;28;20116;-81
2021/09/10 03:33:59;;;;;;;0.10;0.10;;;16.40;99.90;;;;;;5034403;28;20057;-80
2021/09/10 03:36:26;;;;;;;0.10;0.10;;;16.40;99.90;;;;;;5037149;28;20025;-80
2021/09/10 03:38:52;;;;;;;0.20;0.20;;;16.40;99.90;;;;;;5037078;28;20383;-81
2021/09/10 03:41:17;;;;;;;0.10;0.10;;;16.30;99.90;;;;;;5036470;28;20029;-80
2021/09/10 03:43:44;;;;;;;0.10;0.10;;;16.20;99.90;;;;;;5036079;28;20025;-80
2021/09/10 03:46:13;;;;;;;0.10;0.10;;;16.10;99.90;;;;;;5035768;28;20490;-81
2021/09/10 03:48:38;;;;;;;0.20;0.20;;;16.10;99.90;;;;;;5034403;28;20040;-81
2021/09/10 03:51:04;;;;;;;0.13;0.13;;;16.00;99.90;;;;;;5018210;28;20033;-80
2021/09/10 03:53:30;;;;;;;0.10;0.10;;;16.00;99.90;;;;;;5035731;28;20028;-80
2021/09/10 03:55:56;;;;;;;0.20;0.20;;;15.90;99.90;;;;;;5017695;28;20071;-80
2021/09/10 03:58:21;;;;;;;0.20;0.20;;;15.80;99.90;;;;;;5035361;28;20030;-80
2021/09/10 04:00:47;;;;;;;0.20;0.20;;;15.60;99.90;;;;;;5034606;28;20151;-81
2021/09/10 04:03:13;;;;;;;0.10;0.10;;;15.60;99.90;;;;;;5018077;28;20033;-81
2021/09/10 04:05:38;;;;;;;0.20;0.20;;;15.60;99.90;;;;;;5035249;28;20048;-80
2021/09/10 04:08:04;;;;;;;0.10;0.10;;;15.50;99.90;;;;;;5035743;28;20037;-80
2021/09/10 04:10:30;;;;;;;0.10;0.10;;;15.50;99.90;;;;;;5034379;28;20033;-80
2021/09/10 04:12:56;;;;;;;0.10;0.10;;;15.60;99.90;;;;;;5035550;28;20037;-81
2021/09/10 04:15:21;;;;;;;0.10;0.10;;;15.50;99.90;;;;;;5035307;28;20029;-81
2021/09/10 04:17:47;;;;;;;0.17;0.17;;;15.50;99.90;;;;;;5034061;28;20026;-80
2021/09/10 04:20:13;;;;;;;0.20;0.20;;;15.50;99.90;;;;;;5033982;28;20104;-80
2021/09/10 04:22:42;;;;;;;0.10;0.10;;;15.30;99.90;;;;;;5034425;28;20080;-80
2021/09/10 04:25:09;;;;;;;0.20;0.20;;;15.40;99.90;;;;;;5041060;28;20044;-80
2021/09/10 04:27:35;;;;;;;0.10;0.10;;;15.30;99.90;;;;;;5046985;28;20017;-80
2021/09/10 04:30:02;;;;;;;0.10;0.10;;;15.30;99.90;;;;;;5047689;28;20034;-81
2021/09/10 04:32:29;;;;;;;0.20;0.20;;;15.40;99.90;;;;;;5044035;28;20029;-81
2021/09/10 04:34:54;;;;;;;0.20;0.20;;;15.40;99.90;;;;;;5043016;28;20026;-81
2021/09/10 04:37:20;;;;;;;0.20;0.20;;;15.40;99.90;;;;;;5042605;28;20105;-81
2021/09/10 04:39:46;;;;;;;0.20;0.20;;;15.40;99.90;;;;;;5041357;28;20463;-82
2021/09/10 04:42:11;;;;;;;0.10;0.10;;;15.40;99.90;;;;;;5040232;28;20074;-81
2021/09/10 04:44:37;;;;;;;0.22;0.22;;;15.30;99.90;;;;;;5039514;28;20022;-80
2021/09/10 04:47:03;;;;;;;0.20;0.20;;;15.30;99.90;;;;;;5041725;28;20052;-80
2021/09/10 04:49:28;;;;;;;0.17;0.17;;;15.10;99.90;;;;;;5022243;28;20032;-81
2021/09/10 04:51:54;;;;;;;0.17;0.17;;;15.10;99.90;;;;;;5040900;28;20028;-82
2021/09/10 04:54:20;;;;;;;0.20;0.20;;;15.10;99.90;;;;;;5039967;28;20025;-80
2021/09/10 04:56:45;;;;;;;0.10;0.10;;;15.20;99.90;;;;;;5040523;28;20026;-80
2021/09/10 04:59:12;;;;;;;0.10;0.10;;;15.30;99.90;;;;;;5040799;28;20040;-80
2021/09/10 05:01:38;;;;;;;0.10;0.10;;;15.30;99.90;;;;;;5039765;28;20030;-80
2021/09/10 05:04:04;;;;;;;0.30;0.30;;;15.20;99.90;;;;;;5037462;28;20037;-81
2021/09/10 05:06:29;;;;;;;0.10;0.10;;;15.20;99.90;;;;;;5038764;28;20056;-80
2021/09/10 05:08:57;;;;;;;0.20;0.20;;;15.20;99.90;;;;;;5038680;28;20080;-81
2021/09/10 05:11:22;;;;;;;0.20;0.20;;;15.20;99.90;;;;;;5042751;28;20095;-81
2021/09/10 05:13:48;;;;;;;0.10;0.10;;;15.30;99.90;;;;;;5040114;28;20042;-80
2021/09/10 05:16:14;;;;;;;0.20;0.20;;;15.40;99.90;;;;;;5040101;28;20025;-80
2021/09/10 05:18:39;;;;;;;0.10;0.10;;;15.40;99.90;;;;;;5041246;28;20029;-80
2021/09/10 05:21:05;;;;;;;0.10;0.10;;;15.40;99.90;;;;;;5042473;28;20029;-80
2021/09/10 05:23:31;;;;;;;0.10;0.10;;;15.50;99.90;;;;;;5040250;28;20029;-80
2021/09/10 05:25:58;;;;;;;0.20;0.20;;;15.60;99.90;;;;;;5039498;28;20033;-80
2021/09/10 05:28:24;;;;;;;0.10;0.10;;;15.70;99.90;;;;;;5037447;28;20030;-80
2021/09/10 05:30:50;;;;;;;0.20;0.20;;;15.70;99.90;;;;;;5035730;28;20025;-81
2021/09/10 05:33:16;;;;;;;0.20;0.20;;;15.70;99.90;;;;;;5039825;28;20025;-80
2021/09/10 05:35:42;;;;;;;0.20;0.20;;;15.80;99.90;;;;;;5047541;28;20108;-80
2021/09/10 05:38:08;;;;;;;0.10;0.10;;;15.90;99.90;;;;;;5034764;28;20121;-81
2021/09/10 05:40:34;;;;;;;0.10;0.10;;;15.90;99.90;;;;;;5047560;28;20049;-81
2021/09/10 05:43:00;;;;;;;0.10;0.10;;;16.00;99.90;;;;;;5054170;28;20028;-80
2021/09/10 05:45:26;;;;;;;0.17;0.17;;;16.10;99.90;;;;;;5055443;28;20028;-79
2021/09/10 05:47:52;;;;;;;0.10;0.10;;;16.30;99.90;;;;;;5055447;28;20082;-80
2021/09/10 05:50:17;;;;;;;0.20;0.20;;;16.50;99.90;;;;;;5055614;28;20474;-80
2021/09/10 05:52:43;;;;;;;0.10;0.10;;;16.50;99.90;;;;;;5041715;28;20475;-80
2021/09/10 05:55:09;;;;;;;0.10;0.10;;;16.60;99.90;;;;;;5047107;28;20026;-81
2021/09/10 05:57:35;;;;;;;0.20;0.20;;;16.80;99.90;;;;;;5040802;28;20025;-80
2021/09/10 06:00:03;;;;;;;0.52;0.52;;;16.70;99.90;;;;;;5024831;28;20025;-81
2021/09/10 06:02:28;;;;;;;0.10;0.10;;;16.90;99.90;;;;;;5040083;28;20033;-81
2021/09/10 06:04:54;;;;;;;0.10;0.10;;;17.00;99.90;;;;;;5039288;28;20031;-81
2021/09/10 06:07:20;;;;;;;0.10;0.10;;;17.20;99.90;;;;;;5039154;28;20033;-81
2021/09/10 06:09:45;;;;;;;0.10;0.10;;;17.30;99.90;;;;;;5039750;28;20032;-80
2021/09/10 06:12:11;;;;;;;0.10;0.10;;;17.40;99.90;;;;;;5040509;28;20066;-82
2021/09/10 06:14:37;;;;;;;0.10;0.10;;;17.50;99.90;;;;;;5043490;28;20395;-81
2021/09/10 06:17:03;;;;;;;0.10;0.10;;;17.60;99.90;;;;;;5041624;28;20044;-81
2021/09/10 06:19:28;;;;;;;0.10;0.10;;;17.80;99.90;;;;;;5041559;28;20036;-81
2021/09/10 06:21:54;;;;;;;0.10;0.10;;;18.00;99.90;;;;;;5040814;28;20025;-81
2021/09/10 06:24:20;;;;;;;0.10;0.10;;;18.10;99.90;;;;;;5041412;28;20026;-81
2021/09/10 06:26:45;;;;;;;0.10;0.10;;;18.20;99.90;;;;;;5039023;28;20026;-81
2021/09/10 06:29:12;;;;;;;0.10;0.10;;;18.20;99.90;;;;;;5038602;28;20032;-81
2021/09/10 06:31:39;;;;;;;0.10;0.10;;;18.40;99.90;;;;;;5036284;28;20029;-81
2021/09/10 06:34:06;;;;;;;0.10;0.10;;;18.30;99.90;;;;;;5039466;28;20017;-79
2021/09/10 06:36:32;;;;;;;0.10;0.10;;;18.50;99.90;;;;;;5037932;28;20021;-81
2021/09/10 06:38:57;;;;;;;0.10;0.10;;;18.60;99.90;;;;;;5037701;28;20568;-81
2021/09/10 06:41:23;;;;;;;0.15;0.15;;;18.50;99.90;;;;;;5036896;28;20022;-81
2021/09/10 06:43:49;;;;;;;0.05;0.05;;;18.60;99.90;;;;;;5038676;28;20021;-81
2021/09/10 06:46:14;;;;;;;0.00;0.00;;;18.70;99.90;;;;;;5035907;28;20067;-81
2021/09/10 06:48:40;;;;;;;0.10;0.10;;;18.90;99.90;;;;;;5036705;28;20032;-81
2021/09/10 06:51:07;;;;;;;0.20;0.20;;;19.00;99.90;;;;;;5038535;28;20292;-81
2021/09/10 06:53:34;;;;;;;0.08;0.08;;;19.10;99.90;;;;;;5035590;28;20029;-81
2021/09/10 06:56:00;;;;;;;0.08;0.08;;;19.20;99.90;;;;;;5036185;28;20032;-81
2021/09/10 06:58:26;;;;;;;0.08;0.08;;;19.30;99.90;;;;;;5018736;28;20029;-81
2021/09/10 07:00:51;;;;;;;0.05;0.05;;;19.40;99.90;;;;;;5037129;28;20068;-81
2021/09/10 07:03:17;;;;;;;0.00;0.00;;;19.50;99.90;;;;;;5018081;28;20120;-81
2021/09/10 07:05:43;;;;;;;0.10;0.10;;;19.60;99.90;;;;;;5040562;28;20021;-81
2021/09/10 07:08:09;;;;;;;0.03;0.03;;;19.90;99.90;;;;;;5029790;28;20036;-81
2021/09/10 07:10:35;;;;;;;0.08;0.08;;;20.00;99.90;;;;;;5014561;28;20022;-80
2021/09/10 07:13:01;;;;;;;0.00;0.00;;;20.30;99.90;;;;;;5031919;28;20108;-81
2021/09/10 07:15:27;;;;;;;0.00;0.00;;;20.50;99.90;;;;;;5032890;28;20057;-81
2021/09/10 07:17:53;;;;;;;0.00;0.00;;;20.70;99.90;;;;;;5033182;28;20080;-81
2021/09/10 07:20:19;;;;;;;0.00;0.00;;;21.10;99.90;;;;;;5016061;28;20112;-82
2021/09/10 07:22:44;;;;;;;0.10;0.10;;;21.50;99.90;;;;;;5032981;28;20037;-81
2021/09/10 07:25:10;;;;;;;0.10;0.10;;;21.80;99.80;;;;;;5033960;28;20022;-81
2021/09/10 07:27:36;;;;;;;0.00;0.00;;;22.10;96.90;;;;;;5037173;28;20010;-81
2021/09/10 07:30:03;;;;;;;0.05;0.05;;;22.60;95.40;;;;;;5050438;28;20239;-81
2021/09/10 07:32:29;;;;;;;0.08;0.08;;;23.00;93.40;;;;;;5027944;28;20052;-82
2021/09/10 07:34:55;;;;;;;0.55;0.55;;;23.50;90.80;;;;;;5040164;28;20494;-81
2021/09/10 07:37:27;;;;;;;0.00;0.00;;;24.10;86.70;;;;;;5039959;28;20443;-83
2021/09/10 07:39:53;;;;;;;0.00;0.00;;;24.50;81.30;;;;;;5039512;28;20022;-82
2021/09/10 07:42:20;;;;;;;0.00;0.00;;;24.70;78.70;;;;;;5033591;28;20022;-81
2021/09/10 07:44:45;;;;;;;0.00;0.00;;;25.00;76.00;;;;;;5031514;28;20028;-81
2021/09/10 07:47:11;;;;;;;0.00;0.00;;;25.50;74.00;;;;;;5032940;28;20022;-81
2021/09/10 07:49:37;;;;;;;0.00;0.00;;;25.90;71.50;;;;;;5014195;28;20079;-80
2021/09/10 07:52:03;;;;;;;0.00;0.00;;;26.90;69.00;;;;;;5032872;28;20093;-81
2021/09/10 07:54:29;;;;;;;0.00;0.00;;;28.40;62.70;;;;;;5030337;28;20179;-78
2021/09/10 07:56:55;;;;;;;0.00;0.00;;;30.10;57.00;;;;;;5013893;28;20517;-79
2021/09/10 07:59:21;;;;;;;0.00;0.00;;;31.60;52.60;;;;;;5030744;28;20032;-79
2021/09/10 08:01:46;;;;;;;0.00;0.00;;;33.20;48.80;;;;;;5031226;28;20029;-79
2021/09/10 08:04:12;;;;;;;0.00;0.00;;;34.50;44.80;;;;;;5032707;28;20364;-78
2021/09/10 08:06:37;;;;;;;0.00;0.00;;;35.30;43.70;;;;;;5031421;28;20025;-79
2021/09/10 08:09:04;;;;;;;0.00;0.00;;;36.60;41.10;;;;;;5031130;28;20371;-80
2021/09/10 08:11:33;;;;;;;0.00;0.00;;;37.50;38.10;;;;;;5033725;28;20017;-80
2021/09/10 08:13:59;;;;;;;0.00;0.00;;;38.10;35.30;;;;;;5032635;28;20034;-80
2021/09/10 08:16:25;;;;;;;0.00;0.00;;;39.50;34.20;;;;;;5032553;28;20052;-80
2021/09/10 08:18:51;;;;;;;0.00;0.00;;;40.30;32.40;;;;;;5032190;28;20057;-82
2021/09/10 08:21:17;;;;;;;0.00;0.00;;;41.40;31.10;;;;;;5040534;28;20033;-80
2021/09/10 08:23:43;;;;;;;0.00;0.00;;;41.50;30.10;;;;;;5039561;28;20033;-80
2021/09/10 08:26:08;;;;;;;0.00;0.00;;;42.00;29.90;;;;;;5039398;28;20148;-80
2021/09/10 08:28:34;;;;;;;0.00;0.00;;;42.80;29.60;;;;;;5039701;28;20030;-80
2021/09/10 08:31:00;;;;;;;0.00;0.00;;;43.40;28.50;;;;;;5040051;28;20536;-80
2021/09/10 08:33:25;;;;;;;0.00;0.00;;;42.90;28.00;;;;;;5040289;28;20033;-80
2021/09/10 08:35:51;;;;;;;0.00;0.00;;;43.40;28.50;;;;;;5040436;28;20375;-80
2021/09/10 08:38:17;;;;;;;0.00;0.00;;;44.50;27.40;;;;;;5041539;28;20018;-80
2021/09/10 08:40:45;;;;;;;0.00;0.00;;;45.60;26.90;;;;;;5022672;28;20018;-80
2021/09/10 08:43:11;;;;;;;0.13;0.13;;;45.80;26.20;;;;;;5023400;28;20543;-80
2021/09/10 08:45:37;;;;;;;0.00;0.00;;;46.70;24.90;;;;;;5038522;28;20052;-81
2021/09/10 08:48:03;;;;;;;0.10;0.10;;;47.40;24.90;;;;;;5040128;28;20022;-81
2021/09/10 08:50:29;;;;;;;0.10;0.10;;;47.80;24.20;;;;;;5039782;28;20030;-81
2021/09/10 08:52:55;;;;;;;0.10;0.10;;;48.30;24.10;;;;;;5023720;28;20030;-80
2021/09/10 08:55:20;;;;;;;0.10;0.10;;;49.00;24.10;;;;;;5036812;28;20085;-81
2021/09/10 08:57:51;;;;;;;0.20;0.20;;;49.30;23.90;;;;;;5037565;28;20292;-81
2021/09/10 09:00:18;;;;;;;0.20;0.20;;;49.50;23.00;;;;;;5020329;28;20026;-81
2021/09/10 09:02:58;;;;;;;0.30;0.30;;;49.90;22.70;;;;;;5020105;28;20037;-81
2021/09/10 09:05:25;;;;;;;0.30;0.30;;;50.20;22.30;;;;;;5037553;28;20036;-81
2021/09/10 09:08:12;;;;;;;0.30;0.30;;;50.80;22.60;;;;;;5038208;28;20439;-82
2021/09/10 09:11:03;;;;;;;0.30;0.30;;;51.40;21.80;;;;;;5035476;28;20056;-81
2021/09/10 09:13:40;;;;;;;0.30;0.30;;;51.40;21.30;;;;;;5036714;28;20026;-81
2021/09/10 09:16:30;;;;;;;0.40;0.40;;;50.80;21.80;;;;;;5039469;28;20080;-82
2021/09/10 09:19:02;;;;;;;0.85;0.85;;;51.30;21.40;;;;;;5039570;28;20025;-81
2021/09/10 09:21:39;;;;;;;0.30;0.30;;;51.00;22.00;;;;;;5037831;28;20032;-81
2021/09/10 09:24:13;;;;;;;0.30;0.30;;;51.20;21.70;;;;;;5040167;28;20022;-83
2021/09/10 09:26:40;;;;;;;0.30;0.30;;;51.30;21.40;;;;;;5036620;28;20022;-82
2021/09/10 09:29:11;;;;;;;0.93;0.93;;;50.70;21.80;;;;;;5036996;28;20022;-82
2021/09/10 09:31:38;;;;;;;0.25;0.25;;;50.80;22.00;;;;;;5037903;28;20022;-82
2021/09/10 09:34:05;;;;;;;0.08;0.08;;;50.10;22.00;;;;;;5048293;28;20060;-82
2021/09/10 09:36:31;;;;;;;0.10;0.10;;;47.90;23.50;;;;;;5053352;28;20040;-82
2021/09/10 09:38:58;;;;;;;0.10;0.10;;;48.00;23.60;;;;;;5054180;28;20085;-82
2021/09/10 09:41:25;;;;;;;0.10;0.10;;;49.10;23.50;;;;;;5032714;28;20018;-83
2021/09/10 09:44:15;;;;;;;0.20;0.20;;;49.80;22.70;;;;;;5050214;28;20048;-82
2021/09/10 09:46:41;;;;;;;1.65;0.63;;;50.70;22.40;;;;;;5048942;28;20029;-82
2021/09/10 09:49:09;;;;;;;0.10;0.10;;;50.30;21.50;;;;;;5048367;28;20029;-83
2021/09/10 09:51:36;;;;;;;0.20;0.20;;;50.30;22.00;;;;;;5048181;28;20025;-81
2021/09/10 09:54:02;;;;;;;0.30;0.30;;;51.10;21.80;;;;;;5046943;28;20078;-82
2021/09/10 09:56:31;;;;;;;0.30;0.30;;;51.60;21.70;;;;;;5044576;28;20148;-83
2021/09/10 09:58:58;;;;;;;0.40;0.40;;;52.20;20.80;;;;;;5043438;28;20025;-82
2021/09/10 10:01:24;;;;;;;0.57;0.57;;;52.80;20.90;;;;;;5042385;28;20536;-82
2021/09/10 10:03:50;;;;;;;0.82;0.82;;;52.60;20.50;;;;;;5041822;28;20033;-83
2021/09/10 10:06:25;;;;;;;0.45;0.45;;;53.20;20.90;;;;;;5042129;28;20026;-82
2021/09/10 10:08:59;;;;;;;0.50;0.50;;;53.00;20.30;;;;;;5039283;28;20472;-83
2021/09/10 10:11:30;;;;;;;0.50;0.50;;;51.60;20.60;;;;;;5019008;28;20021;-83
2021/09/10 10:13:59;;;;;;;0.80;0.80;;;51.70;21.30;;;;;;5038604;28;20080;-83
2021/09/10 10:16:46;;;;;;;0.70;0.70;;;51.70;20.90;;;;;;5027614;23;20037;-81
2021/09/10 10:19:20;;;;;;;0.80;0.80;;;52.90;20.80;;;;;;5013603;28;20018;-81
2021/09/10 10:22:20;;;;;;;1.10;1.10;;;53.00;20.80;;;;;;4997913;28;20036;-82
2021/09/10 10:24:57;;;;;;;1.23;1.23;;;54.00;20.60;;;;;;4984637;28;20058;-81
2021/09/10 10:27:26;;;;;;;1.50;1.50;;;54.70;20.10;;;;;;4992189;28;20030;-81
2021/09/10 10:29:52;;;;;;;1.60;1.60;;;54.70;20.10;;;;;;4992244;28;20026;-81
2021/09/10 10:32:34;;;;;;;1.70;1.70;;;54.30;20.30;;;;;;4992722;28;20037;-81
2021/09/10 10:35:15;;;;;;;1.40;1.40;;;54.50;19.70;;;;;;4975997;28;20026;-81
2021/09/10 10:38:06;;;;;;;1.30;1.30;;;53.10;20.70;;;;;;4993339;28;20026;-80
2021/09/10 10:40:41;;;;;;;1.20;1.20;;;53.10;20.60;;;;;;4992536;28;20038;-81
2021/09/10 10:43:22;;;;;;;0.75;0.75;;;53.00;20.20;;;;;;4992065;28;20023;-81
2021/09/10 10:45:48;;;;;;;0.80;0.80;;;52.80;20.80;;;;;;4991064;28;20029;-80
2021/09/10 10:48:28;;;;;;;1.00;1.00;;;53.50;20.30;;;;;;4991380;28;20535;-82
2021/09/10 10:51:02;;;;;;;0.90;0.90;;;54.30;20.30;;;;;;4991688;28;20022;-80
2021/09/10 10:53:48;;;;;;;0.90;0.90;;;54.50;19.80;;;;;;4992552;28;20057;-81
2021/09/10 10:56:31;;;;;;;0.80;0.80;;;54.40;20.00;;;;;;4990692;28;20126;-80
2021/09/10 10:59:16;;;;;;;0.90;0.90;;;54.50;19.50;;;;;;4975374;28;20026;-81
2021/09/10 11:02:20;;;;;;;1.30;1.30;;;54.60;19.90;;;;;;4993229;28;20471;-81
2021/09/10 11:05:07;;;;;;;1.70;1.70;;;55.50;19.70;;;;;;4992998;28;20379;-81
2021/09/10 11:07:32;;;;;;;1.98;1.88;;;55.80;19.30;;;;;;4991528;28;20068;-81
2021/09/10 11:10:10;;;;;;;0.50;0.50;;;55.00;19.20;;;;;;4993075;28;20026;-80
2021/09/10 11:12:38;;;;;;;0.30;0.30;;;52.30;20.20;;;;;;4992089;28;20514;-80
2021/09/10 11:15:22;;;;;;;0.40;0.40;;;51.90;21.00;;;;;;4991325;28;20034;-81
2021/09/10 11:17:59;;;;;;;0.57;0.57;;;52.80;20.90;;;;;;4975519;28;20080;-81
2021/09/10 11:20:37;;;;;;;0.50;0.50;;;54.00;19.50;;;;;;4991942;28;20399;-80
2021/09/10 11:23:08;;;;;;;0.50;0.50;;;53.90;19.70;;;;;;4992040;28;20030;-80
2021/09/10 11:25:42;;;;;;;0.60;0.60;;;53.10;19.80;;;;;;4992586;28;20018;-80
2021/09/10 11:28:09;;;;;;;0.70;0.70;;;53.90;20.40;;;;;;4991657;28;20027;-81
2021/09/10 11:30:35;;;;;;;0.80;0.80;;;54.40;19.90;;;;;;4975558;28;20476;-81
2021/09/10 11:33:02;;;;;;;0.50;0.50;;;55.20;19.50;;;;;;4991810;28;20035;-81
2021/09/10 11:35:31;;;;;;;0.30;0.30;;;53.50;19.90;;;;;;4992626;28;20395;-80
2021/09/10 11:38:05;;;;;;;0.30;0.30;;;51.60;21.30;;;;;;4991806;28;20068;-81
2021/09/10 11:40:32;;;;;;;0.40;0.40;;;51.70;21.30;;;;;;4993213;28;20061;-81
2021/09/10 11:43:18;;;;;;;0.30;0.30;;;52.80;20.10;;;;;;4993013;28;20062;-82
2021/09/10 11:45:58;;;;;;;0.40;0.40;;;53.60;19.90;;;;;;4991750;28;20023;-81
2021/09/10 11:48:26;;;;;;;0.50;0.50;;;54.30;19.30;;;;;;4993799;28;20026;-81
2021/09/10 11:51:02;;;;;;;0.50;0.50;;;54.90;18.80;;;;;;4992458;28;20018;-81
2021/09/10 11:53:34;;;;;;;0.40;0.40;;;54.70;19.30;;;;;;4991495;28;20525;-81
2021/09/10 11:56:11;;;;;;;0.30;0.30;;;52.90;20.30;;;;;;4995491;28;20116;-81
2021/09/10 11:58:41;;;;;;;0.28;0.28;;;51.70;21.00;;;;;;4995345;28;20022;-81
2021/09/10 12:01:25;;;;;;;0.30;0.30;;;51.70;21.10;;;;;;4995100;28;20121;-80
2021/09/10 12:04:02;;;;;;;0.20;0.20;;;51.90;21.20;;;;;;4996420;28;20038;-80
2021/09/10 12:06:44;;;;;;;0.00;0.00;;;49.30;21.50;;;;;;4978638;28;20142;-80
2021/09/10 12:09:21;;;;;;;0.00;0.00;;;45.20;24.30;;;;;;4995294;28;20026;-80
2021/09/10 12:12:12;;;;;;;0.00;0.00;;;42.90;26.70;;;;;;4971382;28;20034;-80
2021/09/10 12:14:53;;;;;;;0.32;0.30;;;41.20;27.80;;;;;;4959303;28;20424;-80
2021/09/10 12:17:23;;;;;;;0.00;0.00;;;39.90;29.40;;;;;;4978694;28;20093;-81
2021/09/10 12:19:56;;;;;;;;;;;39.10;29.30;;;;;;4976478;28;20029;-78
2021/09/10 12:22:37;;;;;;;0.00;0.00;;;38.40;29.40;;;;;;4992039;28;19916;-80
2021/09/10 12:25:29;;;;;;;;;;;37.60;31.30;;;;;;4976562;28;20077;-80
2021/09/10 12:28:04;;;;;;;0.00;0.00;;;36.90;32.00;;;;;;4975195;28;19913;-79
2021/09/10 12:30:57;;;;;;;0.00;0.00;;;35.70;34.50;;;;;;4959474;28;20023;-80
2021/09/10 12:33:25;;;;;;;0.00;0.00;;;34.60;36.40;;;;;;4977030;28;20023;-80
2021/09/10 12:35:53;;;;;;;0.00;0.00;;;34.20;37.00;;;;;;4975434;28;20035;-79
2021/09/10 12:38:21;;;;;;;0.00;0.00;;;34.20;36.80;;;;;;4975330;28;20031;-79
2021/09/10 12:40:50;;;;;;;0.00;0.00;;;34.20;37.70;;;;;;4975135;28;20033;-78
2021/09/10 12:43:17;;;;;;;0.00;0.00;;;33.90;38.60;;;;;;4975175;28;20114;-79
2021/09/10 12:45:43;;;;;;;0.00;0.00;;;33.60;39.30;;;;;;4975964;28;20030;-80
2021/09/10 12:48:10;;;;;;;0.00;0.00;;;33.30;39.70;;;;;;4976382;28;20037;-79
2021/09/10 12:50:38;;;;;;;0.00;0.00;;;33.10;39.60;;;;;;4975133;28;20050;-81
2021/09/10 12:53:05;;;;;;;0.00;0.00;;;33.10;39.50;;;;;;4975242;28;20487;-78
2021/09/10 12:55:34;;;;;;;0.00;0.00;;;32.90;39.90;;;;;;4974723;28;20042;-78